createdAt,value
2017-08-16T00:00:39.496Z,1014.96
2017-08-16T00:01:39.491Z,1014.99
2017-08-16T00:02:39.488Z,1014.96
2017-08-16T00:03:39.482Z,1014.97
2017-08-16T00:04:39.478Z,1015.05
2017-08-16T00:05:39.477Z,1015.02
2017-08-16T00:06:39.472Z,1015.05
2017-08-16T00:07:39.471Z,1014.99
2017-08-16T00:08:39.469Z,1014.98
2017-08-16T00:09:39.466Z,1014.99
2017-08-16T00:10:39.463Z,1015.00
2017-08-16T00:11:39.457Z,1015.01
2017-08-16T00:12:39.456Z,1014.97
2017-08-16T00:13:39.449Z,1015.00
2017-08-16T00:14:39.447Z,1015.06
2017-08-16T00:15:39.442Z,1015.09
2017-08-16T00:16:39.433Z,1015.10
2017-08-16T00:17:39.431Z,1015.08
2017-08-16T00:18:39.431Z,1015.12
2017-08-16T00:19:39.424Z,1015.12
2017-08-16T00:20:39.424Z,1015.14
2017-08-16T00:21:39.422Z,1015.10
2017-08-16T00:22:39.417Z,1015.10
2017-08-16T00:23:39.411Z,1015.09
2017-08-16T00:24:39.402Z,1015.04
2017-08-16T00:25:39.400Z,1015.09
2017-08-16T00:26:39.396Z,1015.03
2017-08-16T00:27:39.393Z,1015.02
2017-08-16T00:28:39.387Z,1015.03
2017-08-16T00:29:39.384Z,1015.05
2017-08-16T00:30:39.379Z,1015.03
2017-08-16T00:31:39.378Z,1015.06
2017-08-16T00:32:39.377Z,1015.11
2017-08-16T00:33:39.375Z,1015.08
2017-08-16T00:34:39.370Z,1015.04
2017-08-16T00:35:39.364Z,1015.06
2017-08-16T00:36:39.359Z,1015.05
2017-08-16T00:37:39.357Z,1015.03
2017-08-16T00:38:39.351Z,1015.08
2017-08-16T00:39:39.350Z,1015.05
2017-08-16T00:40:39.341Z,1015.09
2017-08-16T00:41:39.335Z,1015.07
2017-08-16T00:42:39.333Z,1015.11
2017-08-16T00:43:39.327Z,1015.09
2017-08-16T00:44:39.324Z,1015.06
2017-08-16T00:45:39.319Z,1015.10
2017-08-16T00:46:39.317Z,1015.06
2017-08-16T00:47:39.311Z,1015.08
2017-08-16T00:48:39.311Z,1015.08
2017-08-16T00:49:39.310Z,1015.08
2017-08-16T00:50:39.302Z,1015.11
2017-08-16T00:51:39.300Z,1015.12
2017-08-16T00:52:39.296Z,1015.05
2017-08-16T00:53:39.289Z,1015.10
2017-08-16T00:54:39.287Z,1015.09
2017-08-16T00:55:39.281Z,1015.12
2017-08-16T00:56:39.272Z,1015.11
2017-08-16T00:57:39.270Z,1015.09
2017-08-16T00:58:39.264Z,1015.11
2017-08-16T00:59:39.261Z,1015.16
2017-08-16T01:00:39.254Z,1015.15
2017-08-16T01:01:39.252Z,1015.17
2017-08-16T01:02:39.245Z,1015.12
2017-08-16T01:03:39.244Z,1015.16
2017-08-16T01:04:39.242Z,1015.19
2017-08-16T01:05:39.237Z,1015.17
2017-08-16T01:06:39.236Z,1015.18
2017-08-16T01:07:39.229Z,1015.24
2017-08-16T01:08:39.223Z,1015.21
2017-08-16T01:09:39.221Z,1015.17
2017-08-16T01:10:39.216Z,1015.18
2017-08-16T01:11:39.213Z,1015.23
2017-08-16T01:12:39.204Z,1015.21
2017-08-16T01:13:39.196Z,1015.24
2017-08-16T01:14:39.195Z,1015.28
2017-08-16T01:15:39.190Z,1015.31
2017-08-16T01:16:39.186Z,1015.31
2017-08-16T01:17:39.179Z,1015.34
2017-08-16T01:18:39.179Z,1015.35
2017-08-16T01:19:39.173Z,1015.37
2017-08-16T01:20:39.171Z,1015.37
2017-08-16T01:21:39.169Z,1015.43
2017-08-16T01:22:39.163Z,1015.40
2017-08-16T01:23:39.159Z,1015.53
2017-08-16T01:24:39.151Z,1015.45
2017-08-16T01:25:39.144Z,1015.54
2017-08-16T01:26:39.142Z,1015.51
2017-08-16T01:27:39.135Z,1015.50
2017-08-16T01:28:39.135Z,1015.49
2017-08-16T01:29:39.133Z,1015.53
2017-08-16T01:30:39.126Z,1015.52
2017-08-16T01:31:39.124Z,1015.53
2017-08-16T01:32:39.117Z,1015.49
2017-08-16T01:33:39.121Z,1015.54
2017-08-16T01:34:39.108Z,1015.52
2017-08-16T01:35:39.107Z,1015.51
2017-08-16T01:36:39.098Z,1015.56
2017-08-16T01:37:39.091Z,1015.55
2017-08-16T01:38:39.090Z,1015.53
2017-08-16T01:39:39.083Z,1015.54
2017-08-16T01:40:39.078Z,1015.56
2017-08-16T01:41:39.076Z,1015.54
2017-08-16T01:42:39.069Z,1015.57
2017-08-16T01:43:39.068Z,1015.60
2017-08-16T01:44:39.067Z,1015.63
2017-08-16T01:45:39.061Z,1015.58
2017-08-16T01:46:39.059Z,1015.60
2017-08-16T01:47:39.052Z,1015.59
2017-08-16T01:48:39.048Z,1015.60
2017-08-16T01:49:39.043Z,1015.61
2017-08-16T01:50:39.042Z,1015.63
2017-08-16T01:51:39.034Z,1015.63
2017-08-16T01:52:39.030Z,1015.61
2017-08-16T01:53:39.024Z,1015.58
2017-08-16T01:54:39.018Z,1015.57
2017-08-16T01:55:39.017Z,1015.59
2017-08-16T01:56:39.012Z,1015.57
2017-08-16T01:57:39.005Z,1015.61
2017-08-16T01:58:39.003Z,1015.56
2017-08-16T01:59:38.997Z,1015.56
2017-08-16T02:00:38.996Z,1015.58
2017-08-16T02:01:38.995Z,1015.61
2017-08-16T02:02:38.989Z,1015.59
2017-08-16T02:03:38.987Z,1015.63
2017-08-16T02:04:38.979Z,1015.61
2017-08-16T02:05:38.976Z,1015.58
2017-08-16T02:06:38.971Z,1015.64
2017-08-16T02:07:38.969Z,1015.60
2017-08-16T02:08:38.960Z,1015.64
2017-08-16T02:09:38.953Z,1015.60
2017-08-16T02:10:38.951Z,1015.60
2017-08-16T02:11:38.944Z,1015.63
2017-08-16T02:12:38.940Z,1015.69
2017-08-16T02:13:38.939Z,1015.74
2017-08-16T02:14:38.932Z,1015.70
2017-08-16T02:15:38.930Z,1015.68
2017-08-16T02:16:38.928Z,1015.66
2017-08-16T02:17:38.921Z,1015.67
2017-08-16T02:18:38.920Z,1015.69
2017-08-16T02:19:38.913Z,1015.73
2017-08-16T02:20:38.910Z,1015.70
2017-08-16T02:21:38.904Z,1015.66
2017-08-16T02:22:38.902Z,1015.67
2017-08-16T02:23:38.896Z,1015.66
2017-08-16T02:24:38.886Z,1015.66
2017-08-16T02:25:38.884Z,1015.67
2017-08-16T02:26:38.878Z,1015.68
2017-08-16T02:27:38.875Z,1015.69
2017-08-16T02:28:38.868Z,1015.62
2017-08-16T02:29:38.866Z,1015.68
2017-08-16T02:30:38.860Z,1015.73
2017-08-16T02:31:38.857Z,1015.73
2017-08-16T02:32:38.856Z,1015.74
2017-08-16T02:33:38.855Z,1015.70
2017-08-16T02:34:38.848Z,1015.73
2017-08-16T02:35:38.840Z,1015.75
2017-08-16T02:36:38.836Z,1015.68
2017-08-16T02:37:38.831Z,1015.70
2017-08-16T02:38:38.827Z,1015.66
2017-08-16T02:39:38.821Z,1015.69
2017-08-16T02:40:38.812Z,1015.71
2017-08-16T02:41:38.810Z,1015.77
2017-08-16T02:42:38.803Z,1015.75
2017-08-16T02:43:38.801Z,1015.75
2017-08-16T02:44:38.794Z,1015.78
2017-08-16T02:45:38.789Z,1015.76
2017-08-16T02:46:38.786Z,1015.76
2017-08-16T02:47:38.779Z,1015.77
2017-08-16T02:48:38.776Z,1015.74
2017-08-16T02:49:38.774Z,1015.76
2017-08-16T02:50:38.768Z,1015.73
2017-08-16T02:51:38.766Z,1015.73
2017-08-16T02:52:38.757Z,1015.74
2017-08-16T02:53:38.755Z,1015.74
2017-08-16T02:54:38.749Z,1015.76
2017-08-16T02:55:38.745Z,1015.69
2017-08-16T02:56:38.737Z,1015.69
2017-08-16T02:57:38.728Z,1015.79
2017-08-16T02:58:38.726Z,1015.74
2017-08-16T02:59:38.720Z,1015.78
2017-08-16T03:00:38.717Z,1015.82
2017-08-16T03:01:38.709Z,1015.83
2017-08-16T03:02:38.704Z,1015.80
2017-08-16T03:03:38.700Z,1015.80
2017-08-16T03:04:38.699Z,1015.83
2017-08-16T03:05:38.692Z,1015.80
2017-08-16T03:06:38.689Z,1015.79
2017-08-16T03:07:38.680Z,1015.81
2017-08-16T03:08:38.677Z,1015.81
2017-08-16T03:09:38.671Z,1015.80
2017-08-16T03:10:38.667Z,1015.84
2017-08-16T03:11:38.661Z,1015.84
2017-08-16T03:12:38.651Z,1015.84
2017-08-16T03:13:38.647Z,1015.91
2017-08-16T03:14:38.641Z,1015.87
2017-08-16T03:15:38.638Z,1015.88
2017-08-16T03:16:38.631Z,1015.89
2017-08-16T03:17:38.624Z,1015.89
2017-08-16T03:18:38.621Z,1015.87
2017-08-16T03:19:38.615Z,1015.90
2017-08-16T03:20:38.612Z,1015.83
2017-08-16T03:21:38.608Z,1015.86
2017-08-16T03:22:38.602Z,1015.87
2017-08-16T03:23:38.599Z,1015.88
2017-08-16T03:24:38.592Z,1015.88
2017-08-16T03:25:38.594Z,1015.93
2017-08-16T03:26:38.580Z,1015.90
2017-08-16T03:27:38.576Z,1015.97
2017-08-16T03:28:38.567Z,1015.95
2017-08-16T03:29:38.558Z,1015.95
2017-08-16T03:30:38.557Z,1015.92
2017-08-16T03:31:38.548Z,1015.95
2017-08-16T03:32:38.547Z,1016.00
2017-08-16T03:33:38.543Z,1016.00
2017-08-16T03:34:38.536Z,1016.04
2017-08-16T03:35:38.532Z,1016.01
2017-08-16T03:36:38.521Z,1016.05
2017-08-16T03:37:38.514Z,1016.05
2017-08-16T03:38:38.512Z,1016.04
2017-08-16T03:39:38.504Z,1016.02
2017-08-16T03:40:38.500Z,1016.03
2017-08-16T03:41:38.493Z,1016.08
2017-08-16T03:42:38.490Z,1016.14
2017-08-16T03:43:38.483Z,1016.11
2017-08-16T03:44:38.481Z,1016.11
2017-08-16T03:45:38.476Z,1016.11
2017-08-16T03:46:38.471Z,1016.10
2017-08-16T03:47:38.467Z,1016.11
2017-08-16T03:48:38.460Z,1016.10
2017-08-16T03:49:38.456Z,1016.17
2017-08-16T03:50:38.451Z,1016.13
2017-08-16T03:51:38.444Z,1016.18
2017-08-16T03:52:38.432Z,1016.15
2017-08-16T03:53:38.431Z,1016.17
2017-08-16T03:54:38.423Z,1016.19
2017-08-16T03:55:38.420Z,1016.16
2017-08-16T03:56:38.413Z,1016.23
2017-08-16T03:57:38.409Z,1016.19
2017-08-16T03:58:38.405Z,1016.22
2017-08-16T03:59:38.402Z,1016.22
2017-08-16T04:00:38.398Z,1016.27
2017-08-16T04:01:38.391Z,1016.26
2017-08-16T04:02:38.388Z,1016.25
2017-08-16T04:03:38.380Z,1016.24
2017-08-16T04:04:38.375Z,1016.30
2017-08-16T04:05:38.372Z,1016.29
2017-08-16T04:06:38.365Z,1016.34
2017-08-16T04:07:38.362Z,1016.30
2017-08-16T04:08:38.352Z,1016.33
2017-08-16T04:09:38.344Z,1016.37
2017-08-16T04:10:38.342Z,1016.36
2017-08-16T04:11:38.334Z,1016.36
2017-08-16T04:12:38.331Z,1016.35
2017-08-16T04:13:38.324Z,1016.36
2017-08-16T04:14:38.322Z,1016.37
2017-08-16T04:15:38.316Z,1016.37
2017-08-16T04:16:38.313Z,1016.41
2017-08-16T04:17:38.310Z,1016.42
2017-08-16T04:18:38.303Z,1016.46
2017-08-16T04:19:38.301Z,1016.50
2017-08-16T04:20:38.295Z,1016.52
2017-08-16T04:21:38.288Z,1016.52
2017-08-16T04:22:38.287Z,1016.52
2017-08-16T04:23:38.280Z,1016.55
2017-08-16T04:24:38.268Z,1016.59
2017-08-16T04:25:38.267Z,1016.60
2017-08-16T04:26:38.259Z,1016.59
2017-08-16T04:27:38.257Z,1016.63
2017-08-16T04:28:38.249Z,1016.59
2017-08-16T04:29:38.248Z,1016.63
2017-08-16T04:30:38.241Z,1016.66
2017-08-16T04:31:38.238Z,1016.64
2017-08-16T04:32:38.235Z,1016.66
2017-08-16T04:33:38.229Z,1016.70
2017-08-16T04:34:38.226Z,1016.73
2017-08-16T04:35:38.220Z,1016.76
2017-08-16T04:36:38.209Z,1016.73
2017-08-16T04:37:38.207Z,1016.75
2017-08-16T04:38:38.200Z,1016.79
2017-08-16T04:39:38.199Z,1016.80
2017-08-16T04:40:38.197Z,1016.80
2017-08-16T04:41:38.191Z,1016.76
2017-08-16T04:42:38.186Z,1016.79
2017-08-16T04:43:38.181Z,1016.83
2017-08-16T04:44:38.178Z,1016.78
2017-08-16T04:45:38.171Z,1016.80
2017-08-16T04:46:38.168Z,1016.86
2017-08-16T04:47:38.162Z,1016.81
2017-08-16T04:48:38.151Z,1016.84
2017-08-16T04:49:38.148Z,1016.86
2017-08-16T04:50:38.143Z,1016.84
2017-08-16T04:51:38.139Z,1016.83
2017-08-16T04:52:38.134Z,1016.84
2017-08-16T04:53:38.126Z,1016.87
2017-08-16T04:54:38.126Z,1016.90
2017-08-16T04:55:38.119Z,1016.87
2017-08-16T04:56:38.117Z,1016.85
2017-08-16T04:57:38.116Z,1016.88
2017-08-16T04:58:38.108Z,1016.89
2017-08-16T04:59:38.105Z,1016.93
2017-08-16T05:00:38.099Z,1016.89
2017-08-16T05:01:38.096Z,1016.91
2017-08-16T05:02:38.088Z,1016.94
2017-08-16T05:03:38.087Z,1016.92
2017-08-16T05:04:38.076Z,1016.95
2017-08-16T05:05:38.071Z,1016.96
2017-08-16T05:06:38.068Z,1016.92
2017-08-16T05:07:38.061Z,1016.98
2017-08-16T05:08:38.057Z,1016.97
2017-08-16T05:09:38.054Z,1016.93
2017-08-16T05:10:38.047Z,1016.95
2017-08-16T05:11:38.045Z,1017.01
2017-08-16T05:12:38.045Z,1016.93
2017-08-16T05:13:38.038Z,1016.95
2017-08-16T05:14:38.035Z,1016.96
2017-08-16T05:15:38.028Z,1016.98
2017-08-16T05:16:38.025Z,1017.01
2017-08-16T05:17:38.018Z,1017.00
2017-08-16T05:18:38.016Z,1017.01
2017-08-16T05:19:38.009Z,1017.00
2017-08-16T05:20:38.011Z,1017.04
2017-08-16T05:21:37.998Z,1017.03
2017-08-16T05:22:37.991Z,1017.06
2017-08-16T05:23:37.989Z,1017.08
2017-08-16T05:24:37.984Z,1017.09
2017-08-16T05:25:37.977Z,1017.07
2017-08-16T05:26:37.976Z,1017.07
2017-08-16T05:27:37.969Z,1017.07
2017-08-16T05:28:37.968Z,1017.10
2017-08-16T05:29:37.964Z,1017.07
2017-08-16T05:30:37.958Z,1017.08
2017-08-16T05:31:37.957Z,1017.08
2017-08-16T05:32:37.949Z,1017.07
2017-08-16T05:33:37.946Z,1017.15
2017-08-16T05:34:37.941Z,1017.16
2017-08-16T05:35:37.939Z,1017.17
2017-08-16T05:36:37.928Z,1017.21
2017-08-16T05:37:37.923Z,1017.20
2017-08-16T05:38:37.922Z,1017.23
2017-08-16T05:39:37.914Z,1017.23
2017-08-16T05:40:37.913Z,1017.24
2017-08-16T05:41:37.917Z,1017.25
2017-08-16T05:42:37.906Z,1017.28
2017-08-16T05:43:37.902Z,1017.30
2017-08-16T05:44:37.894Z,1017.31
2017-08-16T05:45:37.887Z,1017.34
2017-08-16T05:46:37.885Z,1017.37
2017-08-16T05:47:37.882Z,1017.35
2017-08-16T05:48:37.877Z,1017.36
2017-08-16T05:49:37.871Z,1017.28
2017-08-16T05:50:37.868Z,1017.33
2017-08-16T05:51:37.863Z,1017.28
2017-08-16T05:52:37.862Z,1017.29
2017-08-16T05:53:37.860Z,1017.30
2017-08-16T05:54:37.854Z,1017.30
2017-08-16T05:55:37.851Z,1017.38
2017-08-16T05:56:37.847Z,1017.34
2017-08-16T05:57:37.841Z,1017.38
2017-08-16T05:58:37.839Z,1017.37
2017-08-16T05:59:37.833Z,1017.41
2017-08-16T06:00:37.824Z,1017.40
2017-08-16T06:01:37.822Z,1017.36
2017-08-16T06:02:37.817Z,1017.38
2017-08-16T06:03:37.815Z,1017.40
2017-08-16T06:04:37.807Z,1017.40
2017-08-16T06:05:37.807Z,1017.43
2017-08-16T06:06:37.800Z,1017.42
2017-08-16T06:07:37.797Z,1017.44
2017-08-16T06:08:37.798Z,1017.43
2017-08-16T06:09:37.792Z,1017.49
2017-08-16T06:10:37.789Z,1017.50
2017-08-16T06:11:37.785Z,1017.53
2017-08-16T06:12:37.780Z,1017.52
2017-08-16T06:13:37.783Z,1017.54
2017-08-16T06:14:37.772Z,1017.53
2017-08-16T06:15:37.772Z,1017.50
2017-08-16T06:16:37.761Z,1017.48
2017-08-16T06:17:37.757Z,1017.53
2017-08-16T06:18:37.756Z,1017.53
2017-08-16T06:19:37.748Z,1017.49
2017-08-16T06:20:37.747Z,1017.51
2017-08-16T06:21:37.742Z,1017.54
2017-08-16T06:22:37.740Z,1017.58
2017-08-16T06:23:37.734Z,1017.57
2017-08-16T06:24:37.735Z,1017.61
2017-08-16T06:25:37.734Z,1017.61
2017-08-16T06:26:37.729Z,1017.58
2017-08-16T06:27:37.727Z,1017.60
2017-08-16T06:28:37.722Z,1017.58
2017-08-16T06:29:37.719Z,1017.67
2017-08-16T06:30:37.717Z,1017.65
2017-08-16T06:31:37.712Z,1017.61
2017-08-16T06:32:38.054Z,1017.65
2017-08-16T06:33:37.703Z,1017.65
2017-08-16T06:34:37.697Z,1017.63
2017-08-16T06:35:37.695Z,1017.65
2017-08-16T06:36:37.691Z,1017.67
2017-08-16T06:37:37.690Z,1017.69
2017-08-16T06:38:37.683Z,1017.72
2017-08-16T06:39:37.683Z,1017.70
2017-08-16T06:40:37.683Z,1017.67
2017-08-16T06:41:37.679Z,1017.70
2017-08-16T06:42:37.678Z,1017.70
2017-08-16T06:43:37.673Z,1017.69
2017-08-16T06:44:37.671Z,1017.69
2017-08-16T06:45:37.662Z,1017.70
2017-08-16T06:46:37.661Z,1017.69
2017-08-16T06:47:37.657Z,1017.68
2017-08-16T06:48:37.656Z,1017.70
2017-08-16T06:49:37.657Z,1017.72
2017-08-16T06:50:37.657Z,1017.77
2017-08-16T06:51:37.651Z,1017.75
2017-08-16T06:52:37.644Z,1017.78
2017-08-16T06:53:37.644Z,1017.83
2017-08-16T06:54:37.640Z,1017.85
2017-08-16T06:55:37.641Z,1017.80
2017-08-16T06:56:37.633Z,1017.85
2017-08-16T06:57:37.629Z,1017.79
2017-08-16T06:58:37.628Z,1017.84
2017-08-16T06:59:37.623Z,1017.85
2017-08-16T07:00:37.623Z,1017.89
2017-08-16T07:01:37.622Z,1017.88
2017-08-16T07:02:37.644Z,1017.90
2017-08-16T07:03:37.618Z,1017.95
2017-08-16T07:04:37.618Z,1017.99
2017-08-16T07:05:37.616Z,1017.94
2017-08-16T07:06:37.617Z,1017.95
2017-08-16T07:07:37.613Z,1017.97
2017-08-16T07:08:37.613Z,1017.96
2017-08-16T07:09:37.610Z,1017.94
2017-08-16T07:10:37.611Z,1017.99
2017-08-16T07:11:37.608Z,1018.03
2017-08-16T07:12:37.601Z,1018.03
2017-08-16T07:13:37.603Z,1018.24
2017-08-16T07:14:37.599Z,1018.08
2017-08-16T07:15:37.602Z,1018.18
2017-08-16T07:16:37.601Z,1018.61
2017-08-16T07:17:37.598Z,1018.76
2017-08-16T07:18:37.599Z,1018.80
2017-08-16T07:19:37.602Z,1018.82
2017-08-16T07:20:37.602Z,1018.86
2017-08-16T07:21:37.604Z,1018.86
2017-08-16T07:22:37.604Z,1018.92
2017-08-16T07:23:37.607Z,1018.97
2017-08-16T07:24:37.608Z,1018.99
2017-08-16T07:25:37.611Z,1018.98
2017-08-16T07:26:37.613Z,1018.85
2017-08-16T07:27:37.618Z,1018.71
2017-08-16T07:28:37.616Z,1018.85
2017-08-16T07:29:37.618Z,1018.86
2017-08-16T07:30:37.626Z,1018.90
2017-08-16T07:31:37.629Z,1018.88
2017-08-16T07:32:37.631Z,1018.88
2017-08-16T07:33:37.638Z,1018.90
2017-08-16T07:34:37.640Z,1018.94
2017-08-16T07:35:37.648Z,1018.99
2017-08-16T07:36:37.659Z,1018.92
2017-08-16T07:37:37.662Z,1018.92
2017-08-16T07:38:37.670Z,1018.33
2017-08-16T07:39:37.676Z,1018.30
2017-08-16T07:40:37.683Z,1018.37
2017-08-16T07:41:37.689Z,1018.32
2017-08-16T07:42:37.699Z,1018.26
2017-08-16T07:43:37.704Z,1018.24
2017-08-16T07:44:37.710Z,1018.29
2017-08-16T07:45:37.718Z,1018.34
2017-08-16T07:46:37.722Z,1018.29
2017-08-16T07:47:37.820Z,1018.32
2017-08-16T07:48:37.744Z,1018.28
2017-08-16T07:49:37.750Z,1018.28
2017-08-16T07:50:37.763Z,1018.23
2017-08-16T07:51:37.768Z,1018.27
2017-08-16T07:52:37.799Z,1018.22
2017-08-16T07:53:37.781Z,1018.18
2017-08-16T07:54:37.788Z,1018.21
2017-08-16T07:55:37.797Z,1018.16
2017-08-16T07:56:37.802Z,1018.14
2017-08-16T07:57:37.810Z,1018.14
2017-08-16T07:58:37.820Z,1018.18
2017-08-16T07:59:37.826Z,1018.17
2017-08-16T08:00:37.835Z,1018.24
2017-08-16T08:01:37.840Z,1018.24
2017-08-16T08:02:37.848Z,1018.25
2017-08-16T08:03:37.853Z,1018.28
2017-08-16T08:04:37.862Z,1018.32
2017-08-16T08:05:37.871Z,1018.30
2017-08-16T08:06:37.868Z,1018.33
2017-08-16T08:07:37.876Z,1018.34
2017-08-16T08:08:37.877Z,1018.34
2017-08-16T08:09:37.880Z,1018.33
2017-08-16T08:10:37.888Z,1018.28
2017-08-16T08:11:37.893Z,1018.29
2017-08-16T08:12:37.900Z,1018.31
2017-08-16T08:13:37.903Z,1018.33
2017-08-16T08:14:37.909Z,1018.48
2017-08-16T08:15:37.913Z,1018.60
2017-08-16T08:16:37.921Z,1018.60
2017-08-16T08:17:37.928Z,1018.56
2017-08-16T08:18:37.932Z,1018.59
2017-08-16T08:19:37.941Z,1018.68
2017-08-16T08:20:37.946Z,1018.66
2017-08-16T08:21:37.950Z,1018.73
2017-08-16T08:22:37.959Z,1018.65
2017-08-16T08:23:37.964Z,1018.72
2017-08-16T08:24:38.052Z,1018.72
2017-08-16T08:25:37.976Z,1018.63
2017-08-16T08:26:37.983Z,1018.57
2017-08-16T08:27:37.993Z,1018.53
2017-08-16T08:28:37.998Z,1018.49
2017-08-16T08:29:38.009Z,1018.51
2017-08-16T08:30:38.016Z,1018.49
2017-08-16T08:31:38.028Z,1018.49
2017-08-16T08:32:38.042Z,1018.53
2017-08-16T08:33:38.053Z,1018.68
2017-08-16T08:34:38.059Z,1018.66
2017-08-16T08:35:38.065Z,1018.76
2017-08-16T08:36:38.075Z,1018.80
2017-08-16T08:37:38.088Z,1018.80
2017-08-16T08:38:38.092Z,1018.78
2017-08-16T08:39:38.105Z,1018.78
2017-08-16T08:40:38.110Z,1018.86
2017-08-16T08:41:38.119Z,1018.90
2017-08-16T08:42:38.131Z,1018.81
2017-08-16T08:43:38.140Z,1018.65
2017-08-16T08:44:38.151Z,1018.58
2017-08-16T08:45:38.161Z,1018.59
2017-08-16T08:46:38.174Z,1018.71
2017-08-16T08:47:38.183Z,1018.62
2017-08-16T08:48:38.197Z,1018.59
2017-08-16T08:49:38.209Z,1018.56
2017-08-16T08:50:38.220Z,1018.53
2017-08-16T08:51:38.235Z,1018.51
2017-08-16T08:52:38.242Z,1018.78
2017-08-16T08:53:38.247Z,1018.77
2017-08-16T08:54:38.262Z,1018.97
2017-08-16T08:55:38.269Z,1018.99
2017-08-16T08:56:38.283Z,1019.04
2017-08-16T08:57:38.294Z,1019.10
2017-08-16T08:58:38.303Z,1019.07
2017-08-16T08:59:38.316Z,1019.07
2017-08-16T09:00:38.324Z,1019.16
2017-08-16T09:01:38.338Z,1019.29
2017-08-16T09:02:38.347Z,1019.35
2017-08-16T09:03:38.362Z,1019.35
2017-08-16T09:04:38.367Z,1019.38
2017-08-16T09:05:38.377Z,1019.35
2017-08-16T09:06:38.393Z,1019.32
2017-08-16T09:07:38.403Z,1019.27
2017-08-16T09:08:38.417Z,1019.17
2017-08-16T09:09:38.433Z,1019.08
2017-08-16T09:10:38.447Z,1019.08
2017-08-16T09:11:38.461Z,1019.04
2017-08-16T09:12:38.479Z,1018.93
2017-08-16T09:13:38.491Z,1018.78
2017-08-16T09:14:38.507Z,1018.89
2017-08-16T09:15:38.520Z,1018.70
2017-08-16T09:16:38.536Z,1018.64
2017-08-16T09:17:38.549Z,1018.60
2017-08-16T09:18:38.565Z,1018.53
2017-08-16T09:19:38.580Z,1018.48
2017-08-16T09:20:38.588Z,1018.45
2017-08-16T09:21:38.609Z,1018.49
2017-08-16T09:22:38.617Z,1018.50
2017-08-16T09:23:38.634Z,1018.46
2017-08-16T09:24:38.647Z,1018.44
2017-08-16T09:25:38.659Z,1018.45
2017-08-16T09:26:38.674Z,1018.49
2017-08-16T09:27:38.685Z,1018.51
2017-08-16T09:28:38.700Z,1018.63
2017-08-16T09:29:38.714Z,1018.81
2017-08-16T09:30:38.724Z,1018.82
2017-08-16T09:31:38.739Z,1018.80
2017-08-16T09:32:38.748Z,1018.78
2017-08-16T09:33:38.762Z,1018.70
2017-08-16T09:34:38.772Z,1018.69
2017-08-16T09:35:38.787Z,1018.66
2017-08-16T09:36:38.794Z,1018.57
2017-08-16T09:37:38.804Z,1018.54
2017-08-16T09:38:38.819Z,1018.50
2017-08-16T09:39:38.829Z,1018.47
2017-08-16T09:40:38.840Z,1018.44
2017-08-16T09:41:38.856Z,1018.41
2017-08-16T09:42:38.869Z,1018.47
2017-08-16T09:43:38.883Z,1018.55
2017-08-16T09:44:38.959Z,1018.55
2017-08-16T09:45:38.909Z,1018.58
2017-08-16T09:46:38.923Z,1018.60
2017-08-16T09:47:38.934Z,1018.58
2017-08-16T09:48:38.947Z,1018.50
2017-08-16T09:49:38.958Z,1018.50
2017-08-16T09:50:38.972Z,1018.53
2017-08-16T09:51:38.987Z,1018.54
2017-08-16T09:52:38.992Z,1018.48
2017-08-16T09:53:39.007Z,1018.44
2017-08-16T09:54:39.020Z,1018.49
2017-08-16T09:55:39.035Z,1018.45
2017-08-16T09:56:39.053Z,1018.43
2017-08-16T09:57:39.063Z,1018.42
2017-08-16T09:58:39.080Z,1018.47
2017-08-16T09:59:39.093Z,1018.47
2017-08-16T10:00:39.100Z,1018.45
2017-08-16T10:01:39.117Z,1018.43
2017-08-16T10:02:39.130Z,1018.45
2017-08-16T10:03:39.159Z,1018.48
2017-08-16T10:04:39.155Z,1018.45
2017-08-16T10:05:39.171Z,1018.44
2017-08-16T10:06:39.184Z,1018.45
2017-08-16T10:07:39.202Z,1018.42
2017-08-16T10:08:39.217Z,1018.41
2017-08-16T10:09:39.230Z,1018.40
2017-08-16T10:10:39.247Z,1018.39
2017-08-16T10:11:39.259Z,1018.36
2017-08-16T10:12:39.273Z,1018.33
2017-08-16T10:13:39.290Z,1018.31
2017-08-16T10:14:39.304Z,1018.30
2017-08-16T10:15:39.319Z,1018.34
2017-08-16T10:16:39.331Z,1018.38
2017-08-16T10:17:39.343Z,1018.35
2017-08-16T10:18:39.360Z,1018.32
2017-08-16T10:19:39.373Z,1018.33
2017-08-16T10:20:39.390Z,1018.24
2017-08-16T10:21:39.403Z,1018.25
2017-08-16T10:22:39.424Z,1018.27
2017-08-16T10:23:39.433Z,1018.28
2017-08-16T10:24:39.453Z,1018.33
2017-08-16T10:25:39.470Z,1018.22
2017-08-16T10:26:39.482Z,1018.21
2017-08-16T10:27:39.501Z,1018.24
2017-08-16T10:28:39.514Z,1018.25
2017-08-16T10:29:39.529Z,1018.26
2017-08-16T10:30:39.549Z,1018.24
2017-08-16T10:31:39.559Z,1018.27
2017-08-16T10:32:39.569Z,1018.26
2017-08-16T10:33:39.590Z,1018.20
2017-08-16T10:34:39.600Z,1018.17
2017-08-16T10:35:39.618Z,1018.21
2017-08-16T10:36:39.630Z,1018.20
2017-08-16T10:37:39.646Z,1018.17
2017-08-16T10:38:39.661Z,1018.16
2017-08-16T10:39:39.678Z,1018.20
2017-08-16T10:40:39.695Z,1018.23
2017-08-16T10:41:39.710Z,1018.23
2017-08-16T10:42:39.726Z,1018.29
2017-08-16T10:43:39.739Z,1018.25
2017-08-16T10:44:39.757Z,1018.31
2017-08-16T10:45:39.770Z,1018.27
2017-08-16T10:46:39.784Z,1018.21
2017-08-16T10:47:39.801Z,1018.25
2017-08-16T10:48:39.810Z,1018.28
2017-08-16T10:49:39.825Z,1018.27
2017-08-16T10:50:39.841Z,1018.29
2017-08-16T10:51:39.860Z,1018.15
2017-08-16T10:52:39.872Z,1018.11
2017-08-16T10:53:39.885Z,1018.28
2017-08-16T10:54:39.901Z,1018.30
2017-08-16T10:55:39.914Z,1018.30
2017-08-16T10:56:39.934Z,1018.24
2017-08-16T10:57:39.950Z,1018.27
2017-08-16T10:58:39.962Z,1018.04
2017-08-16T10:59:39.982Z,1018.02
2017-08-16T11:00:40.069Z,1018.16
2017-08-16T11:01:40.008Z,1018.13
2017-08-16T11:02:40.021Z,1017.98
2017-08-16T11:03:40.038Z,1018.11
2017-08-16T11:04:40.047Z,1018.07
2017-08-16T11:05:40.058Z,1018.08
2017-08-16T11:06:40.076Z,1017.89
2017-08-16T11:07:40.092Z,1017.90
2017-08-16T11:08:40.101Z,1017.91
2017-08-16T11:09:40.114Z,1017.92
2017-08-16T11:10:40.140Z,1017.94
2017-08-16T11:11:40.141Z,1017.92
2017-08-16T11:12:40.157Z,1017.89
2017-08-16T11:13:40.171Z,1017.87
2017-08-16T11:14:40.183Z,1017.93
2017-08-16T11:15:40.198Z,1017.86
2017-08-16T11:16:40.209Z,1017.88
2017-08-16T11:17:40.219Z,1017.89
2017-08-16T11:18:40.231Z,1017.82
2017-08-16T11:19:40.241Z,1017.84
2017-08-16T11:20:40.247Z,1017.77
2017-08-16T11:21:40.260Z,1017.78
2017-08-16T11:22:40.268Z,1017.74
2017-08-16T11:23:40.280Z,1017.79
2017-08-16T11:24:40.287Z,1017.76
2017-08-16T11:25:40.299Z,1017.75
2017-08-16T11:26:40.306Z,1017.79
2017-08-16T11:27:40.319Z,1017.76
2017-08-16T11:28:40.329Z,1017.76
2017-08-16T11:29:40.334Z,1017.73
2017-08-16T11:30:40.345Z,1017.74
2017-08-16T11:31:40.351Z,1017.74
2017-08-16T11:32:40.358Z,1017.74
2017-08-16T11:33:40.366Z,1017.75
2017-08-16T11:34:40.373Z,1017.69
2017-08-16T11:35:40.381Z,1017.70
2017-08-16T11:36:40.382Z,1017.69
2017-08-16T11:37:40.389Z,1017.70
2017-08-16T11:38:40.396Z,1017.69
2017-08-16T11:39:40.400Z,1017.73
2017-08-16T11:40:40.408Z,1017.70
2017-08-16T11:41:40.412Z,1017.70
2017-08-16T11:42:40.420Z,1017.70
2017-08-16T11:43:40.424Z,1017.68
2017-08-16T11:44:40.434Z,1017.66
2017-08-16T11:45:40.444Z,1017.69
2017-08-16T11:46:40.446Z,1017.67
2017-08-16T11:47:40.452Z,1017.62
2017-08-16T11:48:40.457Z,1017.63
2017-08-16T11:49:40.460Z,1017.59
2017-08-16T11:50:40.468Z,1017.63
2017-08-16T11:51:40.471Z,1017.63
2017-08-16T11:52:40.472Z,1017.62
2017-08-16T11:53:40.479Z,1017.62
2017-08-16T11:54:40.483Z,1017.59
2017-08-16T11:55:40.489Z,1017.54
2017-08-16T11:56:40.491Z,1017.56
2017-08-16T11:57:40.497Z,1017.57
2017-08-16T11:58:40.501Z,1017.53
2017-08-16T11:59:40.514Z,1017.51
2017-08-16T12:00:40.516Z,1017.52
2017-08-16T12:01:40.519Z,1017.51
2017-08-16T12:02:40.525Z,1017.52
2017-08-16T12:03:40.530Z,1017.48
2017-08-16T12:04:40.528Z,1017.50
2017-08-16T12:05:40.534Z,1017.54